• Join FlightAware (Why Join?)
  • Login
  • US Flag 
10:18PM EDT


 

Airport Tracker/Info


-or-


 

Live Flight TrackerFlight Track Log ✈ GJS3706 ✈ 08-Jul-2013 ✈ KDEN - KTUL

Flight Track Log - Related Links

Times and Time Zones

All times are in EDT time to prevent confusion due to time zone crossing. See the GJS3706 flight status page for this flight to view local times or setup timezone preferences in your user account.

Time Position Orientation Groundspeed Altitude Reporting Facility
EDT Latitude Longitude Course Direction KTS MPH feet Rate Location/Type
07:50PM 39.9000 -104.6500 113° Southeast 224 258 8,200  Level Denver TRACON
07:51PM 39.8667 -104.5667 118° Southeast 274 315 8,900 1,020 Climbing Denver TRACON
07:52PM 39.8500 -104.4667 102° East 305 351 10,200 1,260 Climbing Denver TRACON
07:53PM 39.8333 -104.3500 101° East 330 380 11,500 1,440 Climbing Denver TRACON
07:54PM 39.8333 -104.2333 90° East 359 413 13,000 1,620 Climbing Denver TRACON
07:56PM 39.6440 -103.9987 113° Southeast  Level FlightAware Approximate
07:56PM 39.8131 -104.0431 98° East 382 440 15,500  Level Denver Center
07:57PM 39.7906 -103.8939 101° East 392 451 17,600 1,740 Climbing Denver Center
07:58PM 39.7758 -103.7547 98° East 387 445 19,100 1,500 Climbing Denver Center
07:59PM 39.7597 -103.6139 98° East 396 456 20,700 1,260 Climbing Denver Center
08:00PM 39.7411 -103.4639 99° East 417 480 21,800 1,080 Climbing Denver Center
08:01PM 39.7225 -103.3061 99° East 439 505 23,000 1,200 Climbing Denver Center
08:02PM 39.7050 -103.1458 98° East 448 516 24,400 1,200 Climbing Denver Center
08:03PM 39.6856 -102.9481 97° East 459 528 25,600 960 Climbing Denver Center
08:04PM 39.6739 -102.8136 96° East 469 540 26,400 1,020 Climbing Denver Center
08:05PM 39.6567 -102.5997 96° East 478 550 27,700 1,080 Climbing Denver Center
08:06PM 39.6414 -102.4361 97° East 480 552 28,700 960 Climbing Denver Center
08:07PM 39.6028 -102.2475 105° East 487 560 29,800 840 Climbing Denver Center
08:08PM 39.5686 -102.0853 105° East 488 562 30,500 540 Climbing Denver Center
08:09PM 39.5183 -101.8947 109° East 501 577 31,000 720 Climbing Denver Center
08:10PM 39.4714 -101.7317 110° East 506 582 32,000 960 Climbing Denver Center
08:11PM 39.4153 -101.5789 115° Southeast 498 573 33,000 480 Climbing Denver Center
08:12PM 39.3292 -101.4106 123° Southeast 504 580 33,000  Level Denver Center
08:13PM 39.2539 -101.2636 123° Southeast 511 588 33,000  Level Denver Center
08:15PM 39.1517 -101.0647 123° Southeast 520 598 33,000  Level Denver Center
08:16PM 39.0628 -100.8917 123° Southeast 521 600 33,000  Level Denver Center
08:17PM 38.9856 -100.7450 124° Southeast 517 595 33,000 240 Level Denver Center
08:18PM 38.9089 -100.5967 124° Southeast 519 597 33,600 660 Climbing Denver Center
08:19PM 38.8189 -100.4267 124° Southeast 516 594 34,400 660 Climbing Denver Center
08:20PM 38.7433 -100.2817 124° Southeast 511 588 35,000 660 Climbing Denver Center
08:21PM 38.6550 -100.1150 124° Southeast 507 583 35,800 720 Climbing Denver Center
08:21PM 38.6169 -100.0444 125° Southeast 503 579 36,200 720 Climbing Kansas City Center
08:22PM 38.5281 -99.8811 125° Southeast 501 577 37,000 660 Climbing Kansas City Center
08:23PM 38.4519 -99.7447 125° Southeast 495 570 37,600 600 Climbing Kansas City Center
08:24PM 38.3772 -99.6092 125° Southeast 489 563 38,300 660 Climbing Kansas City Center
08:25PM 38.2978 -99.4653 125° Southeast 480 552 39,000 300 Climbing Kansas City Center
08:26PM 38.2222 -99.3297 125° Southeast 472 543 39,000  Level Kansas City Center
08:27PM 38.1458 -99.1947 126° Southeast 471 542 39,000  Level Kansas City Center
08:28PM 38.0692 -99.0589 126° Southeast 473 544 39,000  Level Kansas City Center
08:29PM 37.9772 -98.8964 126° Southeast 474 545 39,000  Level Kansas City Center
08:31PM 37.9006 -98.7611 126° Southeast 474 545 39,000  Level Kansas City Center
08:32PM 37.8244 -98.6253 125° Southeast 475 547 39,000 -240 Level Kansas City Center
08:33PM 37.7461 -98.4917 127° Southeast 476 548 38,600 -720 Descending Kansas City Center
08:34PM 37.6669 -98.3517 126° Southeast 488 562 37,600 -1,200 Descending Kansas City Center
08:35PM 37.5853 -98.2114 126° Southeast 498 573 36,200 -1,560 Descending Kansas City Center
08:36PM 37.4878 -98.0447 126° Southeast 498 573 34,500 -1,500 Descending Kansas City Center
08:37PM 37.4097 -97.9067 125° Southeast 492 566 33,200 -1,440 Descending Kansas City Center
08:38PM 37.3281 -97.7697 127° Southeast 490 564 31,600 -1,800 Descending Kansas City Center
08:39PM 37.2453 -97.6292 126° Southeast 496 571 29,600 -1,980 Descending Kansas City Center
08:40PM 37.1642 -97.4894 126° Southeast 498 573 27,600 -2,100 Descending Kansas City Center
08:41PM 37.0875 -97.3578 126° Southeast 481 554 25,300 -2,280 Descending Kansas City Center
08:42PM 37.0114 -97.2219 125° Southeast 479 551 23,000 -2,520 Descending Kansas City Center
08:43PM 36.9158 -97.0772 130° Southeast 455 524 20,200 -2,280 Descending Kansas City Center
08:44PM 36.8553 -96.9783 127° Southeast 448 516 18,400 -2,160 Descending Kansas City Center
08:45PM 36.7822 -96.8456 124° Southeast 423 487 15,800 -2,400 Descending Kansas City Center
08:46PM 36.7172 -96.7381 127° Southeast 398 458 13,600 -2,220 Descending Kansas City Center
08:47PM 36.6422 -96.6139 127° Southeast 378 435 11,300 -1,860 Descending Kansas City Center
08:48PM 36.5997 -96.5464 128° Southeast 375 432 10,500 -960 Descending Kansas City Center
08:48PM 36.5633 -96.4833 126° Southeast 370 426 10,100 -600 Descending Kansas City Center
08:49PM 36.5103 -96.3964 127° Southeast 306 352 9,600 -1,140 Descending Kansas City Center
08:50PM 36.4642 -96.3214 127° Southeast 282 325 8,000 -1,680 Descending Kansas City Center
08:51PM 36.4275 -96.2586 126° Southeast 290 334 6,600 -1,560 Descending Kansas City Center
08:52PM 36.3800 -96.1831 128° Southeast 281 323 5,000 -1,320 Descending Kansas City Center
08:53PM 36.3528 -96.1028 113° Southeast 264 304 4,000 -1,020 Descending Kansas City Center
08:54PM 36.3417 -96.0231 100° East 244 281 3,000 -780 Descending Kansas City Center
08:55PM 36.3217 -95.9453 108° East 205 236 2,500 -420 Descending Kansas City Center
08:56PM 36.2903 -95.8950 128° Southeast 174 200 2,200 -540 Descending Kansas City Center
08:57PM 36.2511 -95.8792 162° South 159 183 1,400 -720 Descending Kansas City Center
08:58PM 36.2136 -95.8814 183° South 142 163 700 -720 Descending Kansas City Center
09:00PM 36.1984 -95.8881 130° Southeast  Level Estimated
09:07PM 36.1984 -95.8881 130° Southeast  Level Estimated